Time;durP1;ratioP1;P1;durP2;ratioP2;P2;SDS_P1;SDS_P2;PMS_P1;PMS_P2;Temp;Humidity;BMP_temperature;BMP_pressure;BME280_temperature;BME280_humidity;BME280_pressure;Samples;Min_cycle;Max_cycle;Signal;HPM_P1;HPM_P2
2022/11/23 00:01:19;;;;;;;32.47;16.67;;;;;;;-2.81;74.71;101219.81;4887724;28;20051;-63
2022/11/23 00:04:14;;;;;;;33.03;15.90;;;;;;;-2.69;74.29;101219.56;4936783;28;20267;-64
2022/11/23 00:07:00;;;;;;;33.42;16.05;;;;;;;-2.50;74.04;101223.94;4913924;28;20104;-63
2022/11/23 00:13:01;;;;;;;33.15;15.68;;;;;;;-2.15;74.09;101219.75;4897358;28;20052;-64
2022/11/23 00:15:44;;;;;;;30.60;14.52;;;;;;;-1.93;74.20;101217.44;4898257;28;20489;-63
2022/11/23 00:18:34;;;;;;;19.85;10.60;;;;;;;-1.74;73.85;101220.13;4922261;28;20032;-64
2022/11/23 00:21:12;;;;;;;24.27;12.65;;;;;;;-1.54;73.88;101218.50;4913195;28;20118;-64
2022/11/23 00:23:55;;;;;;;33.97;16.10;;;;;;;-1.88;72.92;101159.63;4936724;28;20952;-64
2022/11/23 00:26:51;;;;;;;23.83;11.32;;;;;;;-1.45;73.11;101223.19;4912125;28;20100;-63
2022/11/23 00:29:46;;;;;;;25.80;12.23;;;;;;;-1.36;72.94;101223.63;4917269;28;20064;-63
2022/11/23 00:35:14;;;;;;;24.50;12.20;;;;;;;-1.20;71.88;101232.03;4910471;28;20062;-64
2022/11/23 00:38:02;;;;;;;20.10;10.77;;;;;;;-1.18;70.96;101233.00;4917806;28;20051;-63
2022/11/23 00:40:48;;;;;;;28.10;13.10;;;;;;;-1.25;70.67;101233.50;4911192;28;20059;-64
2022/11/23 00:43:43;;;;;;;24.17;10.80;;;;;;;-1.08;70.51;101237.75;4897679;28;21573;-63
2022/11/23 00:49:10;;;;;;;19.30;8.05;;;;;;;-1.15;71.07;101243.38;4942530;28;20042;-64
2022/11/23 00:51:55;;;;;;;22.70;9.80;;;;;;;-0.98;70.36;101242.47;4886177;28;20072;-62
2022/11/23 00:54:30;;;;;;;15.90;9.13;;;;;;;-0.82;69.98;101240.59;4922550;28;20044;-62
2022/11/23 00:57:18;;;;;;;21.63;9.40;;;;;;;-0.69;69.82;101245.50;4940480;28;20130;-61
2022/11/23 00:59:53;;;;;;;19.98;9.73;;;;;;;-0.68;69.71;101229.28;4868523;28;20048;-61
2022/11/23 01:05:42;;;;;;;18.40;9.50;;;;;;;-0.74;69.38;101208.50;4841182;28;20057;-61
2022/11/23 01:08:34;;;;;;;21.83;10.05;;;;;;;-0.52;69.13;101244.56;4905068;28;20588;-62
2022/11/23 01:11:13;;;;;;;18.92;9.93;;;;;;;-0.53;68.84;101235.09;4919127;28;20063;-62
2022/11/23 01:13:59;;;;;;;;;;;;;;;-0.37;68.54;101230.66;4879605;28;20045;-62
2022/11/23 01:20:14;;;;;;;21.55;9.93;;;;;;;0.11;68.32;101223.25;4908951;28;20412;-61
2022/11/23 01:23:00;;;;;;;24.00;10.75;;;;;;;0.28;67.46;101224.81;4881870;27;20055;-62
2022/11/23 01:25:43;;;;;;;24.02;10.85;;;;;;;0.16;66.57;101171.22;4902701;28;20041;-61
2022/11/23 01:28:32;;;;;;;19.85;9.75;;;;;;;0.65;66.73;101213.44;4930076;28;20049;-60
2022/11/23 01:31:17;;;;;;;18.77;9.38;;;;;;;0.75;66.68;101189.81;4901397;28;20064;-61
2022/11/23 01:34:07;;;;;;;19.85;9.40;;;;;;;1.36;65.27;101190.34;4920594;28;20043;-61
2022/11/23 01:36:52;;;;;;;17.50;9.38;;;;;;;1.40;64.81;101194.75;4904712;28;20081;-60
2022/11/23 01:39:47;;;;;;;19.17;8.82;;;;;;;1.42;65.23;101200.84;4933423;28;20049;-61
2022/11/23 01:42:35;;;;;;;14.98;8.05;;;;;;;1.36;64.39;101185.19;4899061;28;20048;-61
2022/11/23 01:45:44;;;;;;;13.85;7.68;;;;;;;1.29;64.43;101199.53;4879301;28;20078;-61
2022/11/23 01:48:47;;;;;;;10.20;6.50;;;;;;;0.91;65.50;101142.38;4867653;28;20064;-61
2022/11/23 01:51:48;;;;;;;12.90;6.72;;;;;;;1.16;65.78;101187.91;4874105;28;20046;-60
2022/11/23 01:54:39;;;;;;;13.90;6.32;;;;;;;1.23;65.09;101199.31;4842722;28;20331;-60
2022/11/23 02:03:22;;;;;;;8.98;5.97;;;;;;;1.59;64.76;101186.84;4814604;28;20047;-60
2022/11/23 02:06:05;;;;;;;12.18;6.07;;;;;;;1.86;64.35;101186.06;4845383;28;20069;-60
2022/11/23 02:08:46;;;;;;;10.38;5.45;;;;;;;1.96;62.47;101172.66;4844049;28;20042;-60
2022/11/23 02:11:41;;;;;;;10.15;5.78;;;;;;;2.25;61.93;101162.44;4824792;28;20113;-60
2022/11/23 02:14:20;;;;;;;10.35;5.28;;;;;;;2.27;61.74;101171.06;4788312;28;20051;-59
2022/11/23 02:17:05;;;;;;;9.40;5.35;;;;;;;2.13;60.84;101168.91;4858575;28;20114;-59
2022/11/23 02:20:01;;;;;;;13.35;5.25;;;;;;;2.12;62.07;101162.03;4890046;28;20792;-59
2022/11/23 02:22:55;;;;;;;10.70;5.45;;;;;;;2.14;62.08;101155.19;4922302;28;20069;-61
2022/11/23 02:25:53;;;;;;;8.40;4.85;;;;;;;2.05;61.00;101144.59;4928415;28;20044;-59
2022/11/23 02:28:57;;;;;;;9.57;5.15;;;;;;;1.94;61.45;101166.56;4905055;28;20044;-59
2022/11/23 02:31:37;;;;;;;10.23;5.00;;;;;;;1.95;61.71;101158.03;4891521;28;20056;-59
2022/11/23 02:34:38;;;;;;;8.65;4.85;;;;;;;1.88;62.07;101156.06;4905149;28;20171;-58
2022/11/23 02:37:24;;;;;;;11.82;5.57;;;;;;;1.84;62.93;101167.09;4889186;28;20052;-59
2022/11/23 02:46:14;;;;;;;8.93;4.70;;;;;;;1.92;62.71;101157.91;4928956;28;20056;-59
2022/11/23 02:48:52;;;;;;;9.02;4.82;;;;;;;1.94;61.69;101156.25;4898826;28;20044;-59
2022/11/23 02:51:45;;;;;;;6.88;4.75;;;;;;;2.00;61.52;101155.56;4930868;28;20063;-58
2022/11/23 02:54:40;;;;;;;7.78;4.88;;;;;;;2.21;61.84;101152.81;4925460;28;20055;-58
2022/11/23 02:57:29;;;;;;;8.00;4.82;;;;;;;2.31;61.44;101158.31;4926334;28;20053;-58
2022/11/23 03:00:08;;;;;;;10.48;5.40;;;;;;;2.32;61.77;101160.09;4942696;28;20052;-58
2022/11/23 03:03:07;;;;;;;8.80;5.47;;;;;;;2.30;62.42;101150.53;4945476;28;20044;-58
2022/11/23 03:05:50;;;;;;;9.10;5.72;;;;;;;2.38;62.27;101141.34;4872063;28;20040;-58
2022/11/23 03:08:38;;;;;;;8.98;5.70;;;;;;;2.33;61.11;101150.63;4921745;28;20052;-58
2022/11/23 03:11:18;;;;;;;8.98;5.47;;;;;;;2.38;61.52;101149.94;4927248;28;20037;-57
2022/11/23 03:13:56;;;;;;;10.88;5.50;;;;;;;2.40;62.47;101146.53;4892552;28;20055;-57
2022/11/23 03:16:51;;;;;;;11.25;7.07;;;;;;;2.35;62.44;101154.16;4927253;28;20067;-58
2022/11/23 03:20:16;;;;;;;18.40;8.95;;;;;;;2.27;63.32;101155.59;4867317;28;20052;-58
2022/11/23 03:26:09;;;;;;;23.00;10.30;;;;;;;1.97;64.04;101156.34;4913809;28;20549;-59
2022/11/23 03:28:53;;;;;;;18.15;10.02;;;;;;;1.89;64.89;101152.66;4949319;27;20102;-58
2022/11/23 03:31:31;;;;;;;17.15;9.20;;;;;;;1.58;64.48;101100.09;4953814;28;20051;-59
2022/11/23 03:34:10;;;;;;;17.33;9.43;;;;;;;1.77;64.73;101136.78;4928574;28;20056;-58
2022/11/23 03:37:23;;;;;;;23.52;11.25;;;;;;;1.78;65.28;101133.41;4919692;28;20051;-59
2022/11/23 03:40:04;;;;;;;19.60;9.07;;;;;;;1.63;65.00;101088.25;4863539;28;20068;-58
2022/11/23 03:43:06;;;;;;;19.15;9.45;;;;;;;2.15;65.26;101141.50;4899859;28;20598;-58
2022/11/23 03:45:44;;;;;;;18.27;9.82;;;;;;;2.24;64.89;101134.88;4860468;28;20427;-58
2022/11/23 03:48:37;;;;;;;23.08;9.27;;;;;;;2.12;63.96;101143.97;4939370;28;20036;-58
2022/11/23 03:51:19;;;;;;;15.20;8.75;;;;;;;1.99;64.51;101134.06;4892713;28;20053;-59
2022/11/23 03:54:01;;;;;;;20.75;8.75;;;;;;;1.81;64.62;101143.78;4908112;28;20062;-59
2022/11/23 03:59:37;;;;;;;21.65;9.73;;;;;;;1.93;65.13;101144.22;4900042;28;20053;-58
2022/11/23 04:02:31;;;;;;;16.48;9.27;;;;;;;1.92;64.92;101139.84;4923058;28;20123;-58
2022/11/23 04:05:20;;;;;;;14.48;8.48;;;;;;;1.98;65.21;101137.50;4921034;28;20085;-58
2022/11/23 04:08:16;;;;;;;16.98;7.68;;;;;;;2.05;65.36;101149.75;4923438;28;20233;-58
2022/11/23 04:11:03;;;;;;;13.77;6.88;;;;;;;2.09;64.87;101143.84;4919021;28;20068;-58
2022/11/23 04:13:58;;;;;;;12.32;6.60;;;;;;;1.92;64.14;101142.44;4952300;28;20105;-59
2022/11/23 04:16:56;;;;;;;15.45;6.63;;;;;;;1.71;64.37;101138.31;4909816;28;20111;-58
2022/11/23 04:19:39;;;;;;;17.15;6.65;;;;;;;1.86;64.65;101145.69;4937027;28;20043;-58
2022/11/23 04:22:13;;;;;;;14.18;7.22;;;;;;;1.90;63.99;101146.69;4907035;28;20044;-60
2022/11/23 04:24:55;;;;;;;14.13;6.03;;;;;;;1.91;64.42;101135.53;4904683;28;20041;-58
2022/11/23 04:27:52;;;;;;;11.13;5.65;;;;;;;1.93;63.92;101139.06;4926879;28;20076;-60
2022/11/23 04:30:30;;;;;;;13.68;7.28;;;;;;;1.94;63.71;101140.78;4880236;28;20044;-59
2022/11/23 04:33:15;;;;;;;12.55;6.63;;;;;;;2.02;63.25;101148.78;4928015;28;20040;-58
2022/11/23 04:36:09;;;;;;;15.82;6.18;;;;;;;1.84;64.40;101085.50;4924353;28;20036;-59
2022/11/23 04:41:58;;;;;;;9.55;5.45;;;;;;;2.11;64.02;101139.63;4823467;28;20061;-59
2022/11/23 04:50:34;;;;;;;12.85;7.00;;;;;;;1.71;63.18;101107.41;4855006;28;20966;-59
2022/11/23 04:53:36;;;;;;;10.32;5.78;;;;;;;1.77;63.90;101141.94;4834594;28;20386;-59
2022/11/23 04:56:16;;;;;;;11.35;5.85;;;;;;;1.65;64.58;101143.28;4855988;28;20075;-59
2022/11/23 04:59:00;;;;;;;8.52;5.45;;;;;;;1.49;64.17;101146.16;4832592;28;20155;-59
2022/11/23 05:01:54;;;;;;;10.23;5.45;;;;;;;1.39;65.08;101149.22;4838244;28;20047;-59
2022/11/23 05:04:52;;;;;;;10.52;5.65;;;;;;;1.14;65.22;101153.50;4813958;28;20518;-59
2022/11/23 05:10:41;;;;;;;11.07;5.60;;;;;;;0.86;65.99;101157.63;4839897;28;20504;-58
2022/11/23 05:13:36;;;;;;;11.13;5.68;;;;;;;0.87;66.79;101158.50;4854515;28;20114;-58
2022/11/23 05:16:23;;;;;;;12.48;5.50;;;;;;;0.78;66.96;101143.63;4865283;28;20051;-58
2022/11/23 05:19:11;;;;;;;13.45;5.40;;;;;;;0.76;67.32;101154.69;4901020;28;20064;-59
2022/11/23 05:22:00;;;;;;;13.48;5.45;;;;;;;0.72;68.04;101157.94;4917574;28;20085;-59
2022/11/23 05:28:03;;;;;;;10.43;5.57;;;;;;;0.72;68.34;101158.81;4856268;28;20052;-59
2022/11/23 05:31:07;;;;;;;11.20;6.63;;;;;;;0.54;68.58;101153.84;4887077;28;20326;-59
2022/11/23 05:33:48;;;;;;;8.90;5.45;;;;;;;0.43;69.06;101156.00;4911849;28;20080;-59
2022/11/23 05:36:30;;;;;;;8.35;5.07;;;;;;;0.27;69.21;101145.94;4876689;28;20043;-60
2022/11/23 05:39:33;;;;;;;10.75;5.57;;;;;;;0.28;69.13;101160.56;4911803;28;20132;-59
2022/11/23 05:42:27;;;;;;;10.68;5.78;;;;;;;0.27;69.34;101153.66;4886496;28;20281;-59
2022/11/23 05:45:20;;;;;;;13.82;6.13;;;;;;;0.24;69.78;101148.38;4878846;28;20083;-59
2022/11/23 05:48:15;;;;;;;10.68;6.05;;;;;;;0.20;69.98;101151.66;4901000;28;20091;-59
2022/11/23 05:51:03;;;;;;;12.15;7.22;;;;;;;0.02;70.26;101135.50;4900052;28;20049;-59
2022/11/23 05:54:08;;;;;;;10.52;6.30;;;;;;;0.10;70.99;101159.81;4888282;28;20045;-59
2022/11/23 05:56:55;;;;;;;10.18;5.38;;;;;;;-0.02;70.95;101153.38;4841222;28;20090;-59
2022/11/23 05:59:52;;;;;;;12.35;5.90;;;;;;;-0.05;70.83;101160.06;4913090;28;20113;-59
2022/11/23 06:02:59;;;;;;;10.77;5.72;;;;;;;-0.15;70.39;101158.84;4837362;28;20058;-59
2022/11/23 06:05:45;;;;;;;9.15;5.43;;;;;;;-0.16;71.04;101159.63;4838287;28;20056;-59
2022/11/23 06:08:32;;;;;;;11.52;5.43;;;;;;;-0.22;71.13;101162.81;4867944;28;20073;-58
2022/11/23 06:11:43;;;;;;;13.10;6.10;;;;;;;-0.21;71.67;101161.13;4877674;28;20141;-61
2022/11/23 06:14:30;;;;;;;13.20;7.18;;;;;;;-0.25;72.01;101177.22;4836367;28;20058;-61
2022/11/23 06:17:15;;;;;;;11.85;6.50;;;;;;;-0.32;72.43;101159.81;4869781;28;20041;-60
2022/11/23 06:26:24;;;;;;;18.70;9.35;;;;;;;-0.60;73.45;101158.66;4850881;28;20105;-60
2022/11/23 06:29:20;;;;;;;20.50;10.10;;;;;;;-0.74;73.65;101149.47;4830873;28;20061;-62
2022/11/23 06:32:02;;;;;;;17.23;8.82;;;;;;;-0.84;73.99;101147.31;4839892;28;20347;-61
2022/11/23 06:34:42;;;;;;;30.35;12.38;;;;;;;-1.01;73.40;101150.00;4847194;28;20047;-61
2022/11/23 06:37:22;;;;;;;32.63;12.95;;;;;;;-1.15;74.08;101162.22;4838072;28;20485;-61
2022/11/23 06:40:01;;;;;;;24.08;11.15;;;;;;;-1.28;74.83;101148.75;4838958;28;20133;-61
2022/11/23 06:42:47;;;;;;;25.65;13.18;;;;;;;-1.49;75.11;101144.41;4820230;28;20048;-60
2022/11/23 06:45:33;;;;;;;24.70;11.45;;;;;;;-1.57;75.47;101156.00;4851772;28;20448;-61
2022/11/23 06:51:06;;;;;;;18.85;9.65;;;;;;;-1.76;75.44;101160.22;4913084;28;20142;-60
2022/11/23 06:53:53;;;;;;;19.38;8.43;;;;;;;-1.93;75.63;101158.53;4908653;28;20049;-61
2022/11/23 06:56:41;;;;;;;15.82;7.70;;;;;;;-2.03;76.50;101169.16;4914367;28;20053;-62
2022/11/23 06:59:48;;;;;;;12.73;6.95;;;;;;;-2.24;76.93;101169.84;4898849;28;20099;-62
2022/11/23 07:02:39;;;;;;;15.55;7.93;;;;;;;-2.36;78.07;101174.34;4912871;28;20050;-61
2022/11/23 07:08:08;;;;;;;14.35;7.28;;;;;;;-2.68;79.01;101165.91;4894464;28;20230;-60
2022/11/23 07:10:52;;;;;;;13.50;7.00;;;;;;;-2.76;79.12;101172.31;4883305;28;20084;-61
2022/11/23 07:16:26;;;;;;;10.25;6.05;;;;;;;-3.00;79.37;101171.03;4891731;28;20306;-61
2022/11/23 07:19:09;;;;;;;10.25;5.57;;;;;;;-3.01;80.09;101176.97;4863297;28;20061;-62
2022/11/23 07:21:52;;;;;;;10.57;5.82;;;;;;;-3.05;80.22;101194.66;4931667;28;20052;-62
2022/11/23 07:24:35;;;;;;;10.85;5.93;;;;;;;-3.12;80.37;101202.84;4886592;28;20086;-61
2022/11/23 07:27:24;;;;;;;11.05;6.40;;;;;;;-3.23;80.88;101173.25;4901872;28;20044;-61
2022/11/23 07:30:14;;;;;;;9.73;6.60;;;;;;;-3.16;80.90;101189.81;4945422;28;20099;-61
2022/11/23 07:33:07;;;;;;;10.60;6.45;;;;;;;-3.43;80.30;101169.63;4915001;28;20068;-62
2022/11/23 07:35:52;;;;;;;10.30;6.30;;;;;;;-3.40;81.03;101181.69;4963569;27;20107;-63
2022/11/23 07:38:30;;;;;;;10.82;6.00;;;;;;;-3.45;80.83;101175.44;4886453;28;21034;-63
2022/11/23 07:41:10;;;;;;;;;;;;;;;-3.51;80.66;101171.75;4944294;28;20112;-63
2022/11/23 07:43:49;;;;;;;15.23;9.68;;;;;;;-3.62;80.90;101157.53;4953241;28;19995;-63
2022/11/23 07:46:36;;;;;;;14.45;8.75;;;;;;;-3.65;80.65;101147.13;4919905;28;20532;-63
2022/11/23 07:49:28;;;;;;;15.25;8.73;;;;;;;-3.59;81.16;101146.59;4937670;28;20749;-64
2022/11/23 07:52:14;;;;;;;14.57;7.45;;;;;;;-3.61;81.31;101156.72;4939718;28;20532;-63
2022/11/23 07:54:54;;;;;;;17.05;8.88;;;;;;;-3.87;80.95;101123.75;4879251;28;20040;-63
2022/11/23 07:57:40;;;;;;;12.90;7.95;;;;;;;-3.79;80.98;101148.06;4913374;28;20138;-63
2022/11/23 08:03:43;;;;;;;12.45;6.88;;;;;;;-3.82;81.78;101145.31;4952075;28;20103;-63
2022/11/23 08:06:26;;;;;;;11.20;6.63;;;;;;;-4.05;81.49;101124.47;4938236;27;20098;-66
2022/11/23 08:09:14;;;;;;;9.45;5.70;;;;;;;-4.03;81.78;101143.31;4932283;28;20052;-65
2022/11/23 08:12:16;;;;;;;13.32;6.30;;;;;;;-4.05;82.07;101144.91;4930632;28;20098;-64
2022/11/23 08:15:01;;;;;;;9.95;6.45;;;;;;;-4.10;82.23;101146.31;4927296;28;20055;-65
2022/11/23 08:17:38;;;;;;;26.98;14.25;;;;;;;-4.16;82.25;101140.88;4936560;28;20059;-64
2022/11/23 08:20:28;;;;;;;19.25;11.15;;;;;;;-4.52;82.63;101109.03;4925399;28;20065;-63
2022/11/23 08:23:33;;;;;;;17.08;11.05;;;;;;;-4.25;83.26;101138.66;4922243;28;20086;-65
2022/11/23 08:26:30;;;;;;;19.02;9.10;;;;;;;-4.57;83.55;101111.28;4925129;28;20053;-63
2022/11/23 08:29:25;;;;;;;15.57;9.70;;;;;;;-4.20;83.71;101146.59;4909319;28;20059;-64
2022/11/23 08:32:07;;;;;;;14.77;8.68;;;;;;;-4.20;83.88;101149.13;4923118;28;20049;-65
2022/11/23 08:34:54;;;;;;;15.95;8.25;;;;;;;-4.27;83.31;101147.03;4899815;28;20036;-65
2022/11/23 08:37:43;;;;;;;18.83;9.50;;;;;;;-4.30;82.89;101173.25;4880491;28;20051;-66
2022/11/23 08:40:37;;;;;;;16.13;8.52;;;;;;;-4.52;82.58;101166.00;4951110;28;20044;-65
2022/11/23 08:43:23;;;;;;;14.45;8.23;;;;;;;-4.55;82.68;101165.84;4914525;28;20114;-67
2022/11/23 08:46:07;;;;;;;17.50;8.60;;;;;;;-4.52;83.12;101171.09;4890263;28;20704;-67
2022/11/23 08:48:48;;;;;;;14.25;8.48;;;;;;;-4.61;82.73;101171.47;4893152;28;20037;-66
2022/11/23 08:51:28;;;;;;;15.27;7.90;;;;;;;-4.69;82.77;101166.69;4924395;28;20055;-66
2022/11/23 08:57:22;;;;;;;16.65;8.90;;;;;;;-4.89;81.89;101185.88;4909648;28;20057;-67
2022/11/23 09:00:06;;;;;;;13.82;8.20;;;;;;;-4.97;82.05;101169.25;4933178;28;20098;-67
2022/11/23 09:03:00;;;;;;;15.13;8.48;;;;;;;-5.15;81.37;101169.03;4906398;28;20050;-66
2022/11/23 09:08:43;;;;;;;16.40;7.78;;;;;;;-5.36;81.23;101184.75;4889452;28;20048;-67
2022/11/23 09:11:32;;;;;;;14.07;8.35;;;;;;;-5.54;81.58;101155.56;4917647;28;20482;-66
2022/11/23 09:14:15;;;;;;;16.38;7.95;;;;;;;-5.45;81.83;101163.78;4926671;28;20049;-66
2022/11/23 09:16:58;;;;;;;16.80;7.78;;;;;;;-5.42;81.91;101179.25;4881950;28;20108;-67
2022/11/23 09:22:29;;;;;;;99.80;31.05;;;;;;;-5.37;82.37;101182.97;4923202;28;20059;-66
2022/11/23 09:25:15;;;;;;;81.25;27.20;;;;;;;-5.28;82.66;101183.56;4946934;28;20093;-67
2022/11/23 09:28:01;;;;;;;48.33;18.27;;;;;;;-5.27;82.99;101185.31;4867764;28;20055;-67
2022/11/23 09:30:38;;;;;;;35.92;13.50;;;;;;;-5.22;83.30;101181.41;4889655;28;20049;-68
2022/11/23 09:33:23;;;;;;;26.00;11.48;;;;;;;-5.11;83.11;101181.19;4927846;28;20109;-68
2022/11/23 09:36:15;;;;;;;26.98;11.15;;;;;;;-5.03;83.52;101175.75;4908662;28;20052;-66
2022/11/23 09:39:00;;;;;;;24.45;12.85;;;;;;;-4.96;83.73;101174.47;4897887;28;20312;-67
2022/11/23 09:45:15;;;;;;;25.60;11.15;;;;;;;-4.86;83.37;101189.53;4831278;28;20338;-65
2022/11/23 09:48:27;;;;;;;21.80;10.48;;;;;;;-4.84;83.30;101187.94;4874170;28;20105;-67
2022/11/23 09:51:17;;;;;;;22.88;10.57;;;;;;;-4.83;83.33;101184.59;4796491;28;20104;-68
2022/11/23 09:54:16;;;;;;;21.35;10.13;;;;;;;-4.87;83.40;101169.91;4817896;28;20105;-67
2022/11/23 09:57:03;;;;;;;212.40;56.03;;;;;;;-4.78;83.69;101183.19;4892332;28;20038;-67
2022/11/23 10:00:10;;;;;;;47.30;17.25;;;;;;;-4.74;83.26;101170.63;4857734;28;20158;-65
2022/11/23 10:02:54;;;;;;;21.23;9.38;;;;;;;-4.84;83.22;101159.91;4849384;28;20593;-69
2022/11/23 10:05:45;;;;;;;20.13;9.98;;;;;;;-4.82;83.59;101148.13;4840015;28;20518;-69
2022/11/23 10:08:43;;;;;;;22.33;12.18;;;;;;;-4.64;83.97;101152.53;4845883;28;20054;-68
2022/11/23 10:11:35;;;;;;;23.58;11.27;;;;;;;-4.43;83.81;101171.66;4861445;28;20462;-70
2022/11/23 10:17:41;;;;;;;23.15;11.57;;;;;;;-4.47;83.42;101164.59;4842251;28;20051;-69
2022/11/23 10:20:31;;;;;;;21.20;11.13;;;;;;;-4.69;82.54;101157.38;4842359;28;20047;-69
2022/11/23 10:23:23;;;;;;;23.15;11.35;;;;;;;-4.61;83.18;101170.59;4890743;28;20125;-68
2022/11/23 10:26:04;;;;;;;27.65;11.60;;;;;;;-4.61;83.16;101165.50;4849538;28;20419;-67
2022/11/23 10:28:42;;;;;;;26.45;11.30;;;;;;;-4.75;83.29;101140.84;4903792;28;20463;-71
2022/11/23 10:31:31;;;;;;;28.88;11.65;;;;;;;-4.56;83.18;101169.19;4891801;28;20383;-68
2022/11/23 10:34:17;;;;;;;23.73;12.00;;;;;;;-4.65;83.03;101163.53;4847881;28;20051;-67
2022/11/23 10:37:09;;;;;;;30.98;14.73;;;;;;;-4.67;82.85;101170.22;4873063;28;20092;-67
2022/11/23 10:40:13;;;;;;;30.92;15.13;;;;;;;-4.74;83.01;101152.78;4887712;28;20050;-65
2022/11/23 10:42:56;;;;;;;32.38;14.43;;;;;;;-4.72;83.04;101161.41;4915390;28;20638;-69
2022/11/23 10:48:39;;;;;;;33.97;15.90;;;;;;;-5.22;83.58;101051.47;4896751;28;20140;-68
2022/11/23 10:51:31;;;;;;;34.80;17.60;;;;;;;-4.68;83.75;101148.94;4918910;28;20054;-70
2022/11/23 10:57:46;;;;;;;41.35;17.77;;;;;;;-4.51;84.42;101152.47;4896701;28;20032;-68
2022/11/23 11:04:05;;;;;;;46.30;18.67;;;;;;;-4.26;84.96;101138.59;4884694;28;20059;-68
2022/11/23 11:06:41;;;;;;;84.40;24.95;;;;;;;-4.24;84.85;101132.78;4897194;28;20045;-68
2022/11/23 11:09:42;;;;;;;57.78;19.77;;;;;;;-4.18;84.98;101137.34;4881938;28;20052;-67
2022/11/23 11:12:24;;;;;;;52.63;21.27;;;;;;;-4.16;84.91;101136.66;4867517;28;20508;-68
2022/11/23 11:18:33;;;;;;;50.75;18.25;;;;;;;-4.06;85.15;101125.28;4872136;28;20456;-69
2022/11/23 11:21:29;;;;;;;55.72;20.42;;;;;;;-3.98;84.80;101118.94;4874591;28;20075;-67
2022/11/23 11:24:20;;;;;;;59.03;21.13;;;;;;;-4.03;84.17;101122.91;4851373;28;20112;-66
2022/11/23 11:27:05;;;;;;;48.22;18.75;;;;;;;-3.91;84.36;101127.81;4884844;28;20048;-66
2022/11/23 11:30:02;;;;;;;46.35;19.63;;;;;;;-3.90;83.90;101115.13;4910284;28;20056;-67
2022/11/23 11:33:08;;;;;;;59.03;20.63;;;;;;;-3.96;83.59;101117.34;4930544;28;20329;-68
2022/11/23 11:36:10;;;;;;;45.58;20.13;;;;;;;-3.97;83.31;101115.59;4922393;28;20048;-67
2022/11/23 11:39:02;;;;;;;38.53;17.55;;;;;;;-3.98;83.10;101106.16;4888110;28;20108;-67
2022/11/23 11:42:19;;;;;;;32.75;14.93;;;;;;;-3.87;83.87;101113.53;4926724;28;20381;-67
2022/11/23 11:45:29;;;;;;;40.40;16.95;;;;;;;-3.90;83.20;101115.13;4914029;28;20066;-66
2022/11/23 11:48:15;;;;;;;37.10;17.25;;;;;;;-4.05;82.98;101114.25;4879539;28;20107;-68
2022/11/23 11:54:05;;;;;;;35.45;16.15;;;;;;;-4.36;82.34;101112.53;4846541;28;20032;-67
2022/11/23 11:56:45;;;;;;;36.55;16.70;;;;;;;-4.44;82.57;101108.69;4951461;28;20044;-68
2022/11/23 11:59:41;;;;;;;38.55;17.15;;;;;;;-4.43;83.25;101115.53;4917975;28;20040;-68
2022/11/23 12:02:29;;;;;;;38.72;17.15;;;;;;;-4.36;83.57;101117.66;4937727;28;20061;-68
2022/11/23 12:05:26;;;;;;;37.35;17.83;;;;;;;-4.45;83.30;101101.81;4917246;28;20139;-68
2022/11/23 12:08:23;;;;;;;39.60;16.23;;;;;;;-4.41;83.76;101113.94;4949836;28;20042;-68
2022/11/23 12:11:03;;;;;;;29.85;15.23;;;;;;;-4.36;83.99;101110.00;4905997;28;20044;-68
2022/11/23 12:13:54;;;;;;;31.92;15.02;;;;;;;-4.32;83.69;101107.59;4928931;28;20100;-68
2022/11/23 12:16:42;;;;;;;32.63;15.65;;;;;;;-4.28;83.63;101107.00;4921643;28;20148;-67
2022/11/23 12:19:42;;;;;;;31.70;15.63;;;;;;;-4.25;83.32;101104.63;4920894;28;20211;-68
2022/11/23 12:22:51;;;;;;;27.70;14.38;;;;;;;-4.27;83.46;101090.88;4920328;28;20060;-67
2022/11/23 12:26:01;;;;;;;29.35;15.43;;;;;;;-4.08;83.91;101103.91;4888713;28;20108;-68
2022/11/23 12:28:52;;;;;;;28.55;14.48;;;;;;;-4.19;83.32;101097.31;4935297;28;20097;-68
2022/11/23 12:31:45;;;;;;;29.23;14.20;;;;;;;-4.30;82.82;101071.19;4938258;28;20045;-67
2022/11/23 12:35:15;;;;;;;26.48;13.35;;;;;;;-4.21;83.10;101083.59;4898677;28;20048;-68
2022/11/23 12:38:10;;;;;;;26.40;13.52;;;;;;;-4.18;83.72;101065.91;4858678;28;20093;-67
2022/11/23 12:41:39;;;;;;;26.40;13.32;;;;;;;-4.16;82.93;101075.38;4878489;28;20041;-66
2022/11/23 12:45:00;;;;;;;30.02;13.43;;;;;;;-4.29;82.63;101064.41;4840103;28;20460;-68
2022/11/23 12:48:07;;;;;;;27.40;12.85;;;;;;;-4.47;82.61;101054.91;4859478;28;20045;-67
2022/11/23 12:51:11;;;;;;;26.52;12.82;;;;;;;-4.54;83.00;101065.59;4878565;28;20120;-66
2022/11/23 12:54:07;;;;;;;30.90;13.50;;;;;;;-4.67;82.91;101063.09;4846670;28;20600;-67
2022/11/23 13:00:17;;;;;;;28.33;12.93;;;;;;;-4.67;83.89;101053.78;4843929;28;20106;-65
2022/11/23 13:03:48;;;;;;;25.17;12.07;;;;;;;-4.70;83.94;101042.53;4870424;28;20046;-66
2022/11/23 13:07:09;;;;;;;28.40;13.88;;;;;;;-4.65;84.71;101030.94;4765492;29;20046;-67
2022/11/23 13:11:24;;;;;;;28.67;12.18;;;;;;;-4.36;84.94;101030.91;4847812;28;20157;-68
2022/11/23 13:14:29;;;;;;;29.02;12.48;;;;;;;-4.48;83.70;101029.34;4840444;28;20058;-70
2022/11/23 13:17:55;;;;;;;27.88;12.75;;;;;;;-4.65;83.30;101007.97;4831654;28;20098;-67
2022/11/23 13:23:42;;;;;;;36.65;16.77;;;;;;;-5.25;81.75;100995.22;4783506;28;21058;-67
2022/11/23 13:26:34;;;;;;;37.13;15.70;;;;;;;-5.54;81.80;101006.25;4827269;28;20047;-66
2022/11/23 13:30:02;;;;;;;34.92;16.65;;;;;;;-5.43;82.63;101020.47;4805416;28;20074;-66
2022/11/23 13:32:54;;;;;;;30.83;15.05;;;;;;;-5.48;82.89;101036.28;4824218;28;25178;-68
2022/11/23 13:36:10;;;;;;;36.38;14.23;;;;;;;-5.62;83.18;101027.78;4839385;28;20056;-66
2022/11/23 13:38:50;;;;;;;28.25;13.10;;;;;;;-5.72;83.42;101016.16;4836158;28;20070;-65
2022/11/23 13:42:10;;;;;;;29.40;13.88;;;;;;;-5.78;84.85;100995.44;4850583;28;20243;-64
2022/11/23 13:44:48;;;;;;;32.65;14.77;;;;;;;-5.69;85.20;100996.00;4864851;28;20049;-66
2022/11/23 13:51:07;;;;;;;29.88;13.45;;;;;;;-5.71;85.08;101002.66;4953625;28;20269;-66
2022/11/23 13:53:53;;;;;;;28.20;12.88;;;;;;;-6.44;85.41;100881.16;4930081;28;20052;-66
2022/11/23 13:56:45;;;;;;;44.97;20.77;;;;;;;-5.89;85.26;100991.34;4898437;28;20051;-65
2022/11/23 13:59:37;;;;;;;38.15;19.65;;;;;;;-5.92;85.89;100996.25;4915383;28;20079;-67
2022/11/23 14:02:43;;;;;;;30.38;13.40;;;;;;;-6.23;86.16;100935.91;4914786;28;20053;-66
2022/11/23 14:05:57;;;;;;;30.92;14.18;;;;;;;-5.82;86.52;100993.47;4899658;28;20048;-68
2022/11/23 14:09:10;;;;;;;22.02;11.25;;;;;;;-5.68;86.71;101002.84;4913332;28;20175;-67
2022/11/23 14:12:19;;;;;;;19.48;10.60;;;;;;;-5.50;87.22;101007.28;4906591;28;20056;-67
2022/11/23 14:15:15;;;;;;;19.45;10.48;;;;;;;-5.54;86.90;101005.34;4899758;28;20369;-66
2022/11/23 14:18:58;;;;;;;17.65;8.73;;;;;;;-5.50;87.30;101002.19;4916148;28;20113;-66
2022/11/23 14:21:56;;;;;;;17.65;8.77;;;;;;;-5.26;87.64;100996.00;4924656;28;20348;-67
2022/11/23 14:25:04;;;;;;;18.02;9.05;;;;;;;-5.27;87.21;100980.63;4895735;28;20052;-68
2022/11/23 14:28:08;;;;;;;19.17;8.60;;;;;;;-5.38;87.06;100967.25;4897500;28;20094;-67
2022/11/23 14:31:03;;;;;;;19.00;8.60;;;;;;;-5.30;87.46;100971.13;4935091;28;20354;-67
2022/11/23 14:34:01;;;;;;;36.95;15.35;;;;;;;-5.33;87.41;100988.78;4888746;28;20084;-66
2022/11/23 14:36:51;;;;;;;30.60;13.45;;;;;;;-6.05;87.88;100886.94;4884000;28;20056;-69
2022/11/23 14:40:13;;;;;;;167.48;66.97;;;;;;;-5.31;88.87;100987.22;4890627;28;20512;-68
2022/11/23 14:43:01;;;;;;;86.30;36.45;;;;;;;-5.16;89.27;100989.78;4923889;28;20549;-68
2022/11/23 14:46:03;;;;;;;41.65;18.27;;;;;;;-5.08;89.35;100991.09;4936208;28;20072;-67
2022/11/23 14:48:57;;;;;;;28.40;13.48;;;;;;;-5.05;89.45;100982.75;4911691;28;20086;-68
2022/11/23 14:51:46;;;;;;;18.77;9.07;;;;;;;-4.97;89.92;100981.53;4931618;28;20751;-68
2022/11/23 14:54:50;;;;;;;22.00;10.82;;;;;;;-4.98;89.89;100974.69;4905233;28;20054;-67
2022/11/23 14:57:49;;;;;;;50.08;22.13;;;;;;;-4.95;89.78;100979.94;4912549;28;20112;-68